Time;durP1;ratioP1;P1;durP2;ratioP2;P2;SDS_P1;SDS_P2;PMS_P1;PMS_P2;Temp;Humidity;BMP_temperature;BMP_pressure;BME280_temperature;BME280_humidity;BME280_pressure;Samples;Min_cycle;Max_cycle;Signal;HPM_P1;HPM_P2
2021/08/21 00:00:58;;;;;;;6.60;4.60;;;;;;;19.03;56.13;100428.14;1770255;79;21146;-58
2021/08/21 00:03:25;;;;;;;7.58;4.97;;;;;;;19.00;56.41;100430.34;1757116;79;21051;-59
2021/08/21 00:05:51;;;;;;;8.85;4.53;;;;;;;18.98;56.60;100425.19;1762249;79;21111;-58
2021/08/21 00:08:17;;;;;;;6.92;4.37;;;;;;;18.97;56.87;100433.36;1762037;79;20980;-58
2021/08/21 00:10:44;;;;;;;7.12;4.55;;;;;;;18.92;56.97;100432.03;1758590;79;21070;-58
2021/08/21 00:13:10;;;;;;;8.48;4.00;;;;;;;18.93;56.98;100435.55;1764202;79;21058;-58
2021/08/21 00:15:38;;;;;;;7.67;4.17;;;;;;;18.97;56.86;100433.36;1767901;80;21003;-59
2021/08/21 00:18:04;;;;;;;8.15;4.55;;;;;;;18.97;56.88;100426.69;1765198;79;21585;-59
2021/08/21 00:20:32;;;;;;;9.03;4.70;;;;;;;18.94;57.14;100435.86;1758589;79;21149;-59
2021/08/21 00:22:59;;;;;;;7.83;4.85;;;;;;;18.86;57.38;100437.23;1757184;79;21063;-58
2021/08/21 00:25:25;;;;;;;10.85;5.00;;;;;;;18.77;57.48;100443.60;1741500;80;21181;-59
2021/08/21 00:27:52;;;;;;;7.85;4.92;;;;;;;18.67;57.55;100432.64;1707379;82;21123;-58
2021/08/21 00:30:18;;;;;;;7.28;4.42;;;;;;;18.61;57.89;100438.69;1763720;79;21055;-58
2021/08/21 00:32:45;;;;;;;7.62;4.92;;;;;;;18.54;58.20;100431.89;1764837;79;21083;-59
2021/08/21 00:35:12;;;;;;;8.80;4.92;;;;;;;18.49;58.48;100433.39;1762188;79;21134;-59
2021/08/21 00:37:39;;;;;;;6.97;4.67;;;;;;;18.41;58.63;100434.76;1756884;79;21189;-58
2021/08/21 00:40:08;;;;;;;11.97;5.25;;;;;;;18.34;58.90;100428.81;1756837;79;21465;-59
2021/08/21 00:42:35;;;;;;;7.70;4.42;;;;;;;18.29;59.15;100436.48;1745735;80;21086;-59
2021/08/21 00:45:06;;;;;;;8.85;4.40;;;;;;;18.25;59.39;100442.33;1757635;79;21071;-59
2021/08/21 00:47:33;;;;;;;9.38;5.22;;;;;;;18.20;59.59;100441.50;1760480;79;21102;-58
2021/08/21 00:50:00;;;;;;;8.63;4.03;;;;;;;18.15;59.79;100437.19;1762574;79;21826;-58
2021/08/21 00:52:30;;;;;;;6.78;3.87;;;;;;;18.16;59.99;100424.22;1761408;79;21538;-58
2021/08/21 00:54:58;;;;;;;9.45;4.65;;;;;;;18.22;60.04;100428.84;1756186;79;21012;-59
2021/08/21 00:57:25;;;;;;;7.25;5.15;;;;;;;18.25;60.17;100433.82;1768980;79;21115;-59
2021/08/21 00:59:52;;;;;;;7.55;4.50;;;;;;;18.25;60.27;100431.16;1764974;79;21553;-59
2021/08/21 01:02:22;;;;;;;8.90;5.30;;;;;;;18.21;60.35;100420.53;1723937;80;21236;-59
2021/08/21 01:04:54;;;;;;;7.05;4.83;;;;;;;18.17;60.49;100422.72;1743879;81;21073;-58
2021/08/21 01:07:28;;;;;;;8.20;4.85;;;;;;;18.14;60.42;100418.20;1738219;81;21074;-58
2021/08/21 01:10:06;;;;;;;9.43;4.90;;;;;;;18.13;60.38;100425.88;1741116;82;21069;-58
2021/08/21 01:12:35;;;;;;;7.10;4.72;;;;;;;18.08;60.59;100419.73;1737734;82;21135;-58
2021/08/21 01:15:03;;;;;;;9.78;4.62;;;;;;;18.01;60.78;100422.24;1738567;81;21058;-59
2021/08/21 01:17:34;;;;;;;7.87;4.80;;;;;;;17.98;60.78;100418.59;1735359;82;20999;-59
2021/08/21 01:20:01;;;;;;;10.50;5.40;;;;;;;17.94;60.93;100416.45;1739832;82;21070;-59
2021/08/21 01:22:28;;;;;;;9.15;5.40;;;;;;;17.91;60.94;100416.28;1709637;80;21066;-58
2021/08/21 01:25:00;;;;;;;10.65;4.60;;;;;;;17.91;60.97;100416.28;1738415;82;21145;-58
2021/08/21 01:27:31;;;;;;;8.40;4.78;;;;;;;17.97;60.83;100417.42;1712307;81;21183;-59
2021/08/21 01:30:12;;;;;;;9.23;5.37;;;;;;;18.00;60.81;100416.61;1741544;81;21034;-59
2021/08/21 01:32:41;;;;;;;7.33;5.15;;;;;;;17.99;60.69;100417.59;1740681;82;21093;-59
2021/08/21 01:35:08;;;;;;;9.78;4.75;;;;;;;17.95;60.76;100419.44;1741497;82;22358;-58
2021/08/21 01:37:35;;;;;;;7.80;5.05;;;;;;;17.89;60.90;100413.48;1717134;81;21109;-59
2021/08/21 01:40:21;;;;;;;8.08;5.08;;;;;;;17.85;61.05;100418.77;1737566;81;21168;-59
2021/08/21 01:42:47;;;;;;;9.23;5.05;;;;;;;17.78;61.29;100419.94;1707431;81;21030;-59
2021/08/21 01:45:14;;;;;;;7.08;5.25;;;;;;;17.74;61.49;100422.62;1737654;81;21105;-60
2021/08/21 01:47:43;;;;;;;9.48;4.67;;;;;;;17.67;61.72;100427.78;1709543;82;21113;-59
2021/08/21 01:50:17;;;;;;;7.80;5.10;;;;;;;17.59;61.70;100426.45;1707093;82;21117;-59
2021/08/21 01:52:41;;;;;;;7.05;3.95;;;;;;;17.57;61.85;100431.13;1731479;81;21106;-59
2021/08/21 01:55:11;;;;;;;10.85;5.45;;;;;;;17.60;61.90;100432.09;1735130;82;20988;-59
2021/08/21 01:57:42;;;;;;;9.13;5.03;;;;;;;17.59;61.98;100429.94;1710917;82;21185;-59
2021/08/21 02:00:27;;;;;;;7.17;4.90;;;;;;;17.58;62.17;100430.10;1695386;82;21066;-60
2021/08/21 02:02:53;;;;;;;7.45;5.08;;;;;;;17.55;62.31;100427.77;1717683;82;21114;-59
2021/08/21 02:05:25;;;;;;;8.98;5.37;;;;;;;17.53;62.41;100426.61;1738456;81;21143;-60
2021/08/21 02:07:51;;;;;;;7.17;5.00;;;;;;;17.50;62.62;100430.95;1740329;82;21454;-59
2021/08/21 02:10:19;;;;;;;8.93;5.80;;;;;;;17.47;62.65;100435.27;1739091;80;21117;-60
2021/08/21 02:12:48;;;;;;;8.68;5.05;;;;;;;17.39;62.55;100431.28;1743324;80;21720;-60
2021/08/21 02:15:16;;;;;;;7.85;5.17;;;;;;;17.38;62.62;100430.94;1719673;80;21169;-60
2021/08/21 02:17:46;;;;;;;8.88;5.30;;;;;;;17.43;62.62;100431.27;1736943;81;21181;-59
2021/08/21 02:20:24;;;;;;;7.70;5.03;;;;;;;17.48;62.55;100434.26;1730021;80;22330;-60
2021/08/21 02:22:52;;;;;;;9.05;5.60;;;;;;;17.49;62.55;100431.94;1713452;80;21823;-58
2021/08/21 02:25:19;;;;;;;7.90;4.97;;;;;;;17.48;62.56;100431.59;1739090;80;21031;-59
2021/08/21 02:27:59;;;;;;;7.65;5.35;;;;;;;17.44;62.60;100435.09;1735319;80;21098;-58
2021/08/21 02:30:26;;;;;;;10.38;4.72;;;;;;;17.42;62.66;100433.61;1745788;80;22065;-59
2021/08/21 02:32:52;;;;;;;8.50;5.17;;;;;;;17.37;62.82;100430.63;1744838;81;21110;-59
2021/08/21 02:35:18;;;;;;;9.98;5.72;;;;;;;17.39;62.98;100433.44;1737633;80;21003;-58
2021/08/21 02:37:45;;;;;;;7.58;5.22;;;;;;;17.41;63.00;100425.29;1748478;81;21082;-58
2021/08/21 02:40:13;;;;;;;9.55;5.25;;;;;;;17.44;62.89;100432.94;1742136;80;21012;-59
2021/08/21 02:42:39;;;;;;;8.60;5.60;;;;;;;17.50;62.69;100434.95;1734060;81;21129;-58
2021/08/21 02:45:08;;;;;;;7.87;5.22;;;;;;;17.58;62.46;100436.25;1740379;80;21573;-59
2021/08/21 02:47:34;;;;;;;7.87;5.55;;;;;;;17.64;62.34;100430.27;1728062;82;21082;-59
2021/08/21 02:50:01;;;;;;;8.55;5.35;;;;;;;17.65;62.31;100439.06;1748238;82;21460;-59
2021/08/21 02:52:28;;;;;;;13.90;5.75;;;;;;;17.64;62.34;100443.56;1743798;81;21570;-60
2021/08/21 02:54:56;;;;;;;8.85;5.50;;;;;;;17.68;62.17;100444.57;1743864;81;21078;-60
2021/08/21 02:57:23;;;;;;;7.20;4.60;;;;;;;17.68;62.00;100440.06;1714098;81;21809;-60
2021/08/21 02:59:50;;;;;;;8.55;5.53;;;;;;;17.67;62.08;100449.07;1751808;81;21070;-58
2021/08/21 03:02:16;;;;;;;8.13;5.60;;;;;;;17.61;62.22;100441.75;1748076;79;21393;-58
2021/08/21 03:04:45;;;;;;;9.05;5.60;;;;;;;17.58;62.40;100441.56;1725408;82;21605;-57
2021/08/21 03:07:13;;;;;;;8.55;5.17;;;;;;;17.57;62.43;100439.10;1761932;79;21153;-58
2021/08/21 03:09:49;;;;;;;8.55;4.95;;;;;;;17.57;62.46;100438.59;1765810;79;21690;-58
2021/08/21 03:12:16;;;;;;;8.13;4.62;;;;;;;17.64;62.33;100442.23;1723926;81;21606;-58
2021/08/21 03:14:45;;;;;;;9.15;5.25;;;;;;;17.71;62.24;100444.23;1758572;79;21055;-59
2021/08/21 03:17:12;;;;;;;9.35;4.92;;;;;;;17.70;62.28;100440.76;1758757;79;22879;-59
2021/08/21 03:19:42;;;;;;;10.45;5.55;;;;;;;17.67;62.47;100446.88;1762690;79;21079;-59
2021/08/21 03:22:09;;;;;;;7.97;5.17;;;;;;;17.61;62.54;100445.23;1755605;79;21051;-59
2021/08/21 03:24:37;;;;;;;8.25;5.58;;;;;;;17.58;62.58;100444.23;1762994;79;22494;-59
2021/08/21 03:27:05;;;;;;;9.05;5.58;;;;;;;17.57;62.52;100449.23;1769234;79;21070;-59
2021/08/21 03:29:31;;;;;;;8.33;5.15;;;;;;;17.53;62.50;100448.39;1704327;82;21772;-60
2021/08/21 03:31:58;;;;;;;8.58;5.12;;;;;;;17.50;62.57;100449.58;1749490;79;21066;-59
2021/08/21 03:34:25;;;;;;;8.40;5.42;;;;;;;17.50;62.68;100448.73;1737457;80;21367;-60
2021/08/21 03:36:52;;;;;;;8.45;4.97;;;;;;;17.49;62.76;100447.91;1762479;79;21542;-55
2021/08/21 03:39:19;;;;;;;8.55;5.35;;;;;;;17.51;62.77;100449.89;1751238;79;21082;-57
2021/08/21 03:41:46;;;;;;;8.25;5.20;;;;;;;17.56;62.64;100452.06;1704061;82;22547;-59
2021/08/21 03:44:14;;;;;;;7.95;5.30;;;;;;;17.58;62.67;100448.22;1706975;82;21149;-58
2021/08/21 03:46:41;;;;;;;8.13;5.05;;;;;;;17.58;62.82;100446.06;1714007;79;21067;-58
2021/08/21 03:49:09;;;;;;;7.45;5.53;;;;;;;17.55;63.02;100452.56;1760081;79;21440;-58
2021/08/21 03:51:37;;;;;;;8.30;5.50;;;;;;;17.55;63.13;100458.37;1765845;79;21110;-59
2021/08/21 03:54:04;;;;;;;7.95;5.25;;;;;;;17.55;63.13;100463.21;1762455;79;21402;-56
2021/08/21 03:56:31;;;;;;;9.65;5.20;;;;;;;17.54;63.13;100460.20;1765557;79;22529;-60
2021/08/21 03:59:00;;;;;;;8.20;5.55;;;;;;;17.51;63.09;100461.04;1756017;79;21106;-59
2021/08/21 04:01:27;;;;;;;8.08;5.45;;;;;;;17.49;63.08;100455.88;1701702;82;21099;-58
2021/08/21 04:03:55;;;;;;;8.30;5.10;;;;;;;17.45;63.24;100457.23;1759091;79;21108;-58
2021/08/21 04:06:22;;;;;;;8.38;5.45;;;;;;;17.46;63.30;100460.20;1761800;79;21131;-58
2021/08/21 04:08:49;;;;;;;9.10;6.00;;;;;;;17.53;63.25;100459.86;1731340;80;21499;-58
2021/08/21 04:11:19;;;;;;;9.73;5.42;;;;;;;17.60;63.23;100464.87;1752061;79;21059;-58
2021/08/21 04:13:54;;;;;;;8.73;5.70;;;;;;;17.66;63.25;100461.20;1755679;79;21455;-58
2021/08/21 04:16:24;;;;;;;8.28;5.95;;;;;;;17.68;63.29;100455.22;1759506;79;21111;-58
2021/08/21 04:18:52;;;;;;;11.10;5.50;;;;;;;17.72;63.40;100461.84;1737474;80;21070;-58
2021/08/21 04:21:20;;;;;;;8.78;5.72;;;;;;;17.74;63.48;100466.02;1756442;79;21358;-58
2021/08/21 04:23:48;;;;;;;8.15;5.58;;;;;;;17.79;63.43;100469.52;1765552;79;21092;-59
2021/08/21 04:26:15;;;;;;;8.75;5.80;;;;;;;17.79;63.44;100468.19;1700066;82;21051;-59
2021/08/21 04:28:43;;;;;;;8.83;6.00;;;;;;;17.79;63.36;100469.01;1752978;79;21130;-58
2021/08/21 04:31:09;;;;;;;8.28;5.35;;;;;;;17.86;63.18;100467.02;1740250;80;21134;-58
2021/08/21 04:33:36;;;;;;;9.15;6.25;;;;;;;17.97;62.92;100466.20;1740749;80;21130;-59
2021/08/21 04:36:04;;;;;;;11.60;7.62;;;;;;;18.08;62.82;100466.33;1708000;81;21555;-59
2021/08/21 04:38:32;;;;;;;15.95;8.95;;;;;;;18.18;62.65;100464.81;1712171;79;21085;-58
2021/08/21 04:41:00;;;;;;;16.10;10.70;;;;;;;18.23;62.48;100470.97;1761233;79;21136;-58
2021/08/21 04:43:26;;;;;;;13.35;10.15;;;;;;;18.26;62.18;100470.12;1757949;79;22319;-59
2021/08/21 04:45:54;;;;;;;13.62;9.38;;;;;;;18.32;61.99;100467.26;1760201;79;21148;-59
2021/08/21 04:48:20;;;;;;;14.85;10.30;;;;;;;18.41;61.91;100469.39;1762133;79;21070;-59
2021/08/21 04:50:50;;;;;;;14.78;8.88;;;;;;;18.46;61.74;100469.70;1757221;79;21125;-59
2021/08/21 04:53:18;;;;;;;12.88;9.13;;;;;;;18.48;61.58;100471.72;1756573;79;21042;-59
2021/08/21 04:55:46;;;;;;;15.23;10.25;;;;;;;18.48;61.62;100481.05;1739189;80;21144;-59
2021/08/21 04:58:13;;;;;;;11.97;8.40;;;;;;;18.51;61.58;100475.38;1760827;79;21719;-58
2021/08/21 05:00:41;;;;;;;17.37;9.70;;;;;;;18.65;61.34;100475.14;1757913;79;21101;-62
2021/08/21 05:03:12;;;;;;;15.65;10.25;;;;;;;18.79;61.08;100480.23;1680189;82;21522;-64
2021/08/21 05:05:39;;;;;;;19.55;11.63;;;;;;;18.87;60.77;100478.90;1766877;79;21109;-64
2021/08/21 05:08:06;;;;;;;19.07;11.30;;;;;;;18.94;60.53;100482.00;1770883;79;21374;-63
2021/08/21 05:10:35;;;;;;;14.43;10.13;;;;;;;19.05;60.49;100488.80;1761963;79;21597;-63
2021/08/21 05:13:01;;;;;;;16.40;11.88;;;;;;;19.12;60.41;100483.08;1766008;79;21110;-62
2021/08/21 05:15:28;;;;;;;16.23;11.70;;;;;;;19.19;59.87;100482.38;1769722;79;21588;-60
2021/08/21 05:18:22;;;;;;;15.20;11.95;;;;;;;19.24;59.64;100482.16;1719744;81;21086;-63
2021/08/21 05:20:51;;;;;;;27.07;20.02;;;;;;;19.30;59.27;100484.64;1738482;80;21253;-64
2021/08/21 05:23:15;;;;;;;19.05;11.40;;;;;;;19.37;59.33;100482.92;1752715;79;21073;-64
2021/08/21 05:25:45;;;;;;;13.15;9.95;;;;;;;19.49;59.11;100487.33;1766734;79;21268;-63
2021/08/21 05:28:18;;;;;;;16.77;11.03;;;;;;;19.56;58.67;100486.94;1735602;80;21073;-64
2021/08/21 05:30:45;;;;;;;16.57;12.60;;;;;;;19.59;58.67;100483.09;1738419;80;21355;-64
2021/08/21 05:33:14;;;;;;;20.35;16.55;;;;;;;19.61;58.59;100482.40;1736530;79;21154;-64
2021/08/21 05:35:41;;;;;;;17.02;13.22;;;;;;;19.66;58.59;100488.03;1745959;79;21522;-63
2021/08/21 05:38:07;;;;;;;13.70;10.40;;;;;;;19.75;58.68;100483.47;1773265;79;21897;-64
2021/08/21 05:40:34;;;;;;;22.35;17.82;;;;;;;19.79;58.72;100485.61;1764918;79;21058;-63
2021/08/21 05:43:00;;;;;;;18.45;11.83;;;;;;;19.85;58.45;100486.23;1746792;79;22015;-64
2021/08/21 05:45:27;;;;;;;17.50;12.03;;;;;;;19.90;58.51;100483.51;1775930;79;21053;-64
2021/08/21 05:47:53;;;;;;;17.23;13.72;;;;;;;19.95;58.52;100481.94;1731928;80;21769;-64
2021/08/21 05:50:21;;;;;;;22.50;18.48;;;;;;;20.05;57.80;100489.70;1773007;79;21623;-63
2021/08/21 05:52:49;;;;;;;23.42;15.50;;;;;;;20.20;57.48;100483.03;1776054;79;21376;-61
2021/08/21 05:55:16;;;;;;;20.00;16.07;;;;;;;20.29;57.37;100480.61;1766629;79;22222;-64
2021/08/21 05:57:54;;;;;;;27.42;18.23;;;;;;;20.37;57.06;100481.01;1765958;79;21073;-70
2021/08/21 06:00:21;;;;;;;26.42;20.75;;;;;;;20.45;56.78;100484.11;1768933;79;22763;-64
2021/08/21 06:02:47;;;;;;;21.35;13.45;;;;;;;20.51;56.74;100482.86;1728443;82;21082;-63
2021/08/21 06:05:13;;;;;;;20.72;15.65;;;;;;;20.58;56.88;100481.61;1738641;79;21118;-65
2021/08/21 06:07:41;;;;;;;14.93;10.40;;;;;;;20.66;56.80;100482.03;1768345;79;21105;-66
2021/08/21 06:10:10;;;;;;;20.27;16.40;;;;;;;20.72;56.58;100479.95;1774751;79;21062;-64
2021/08/21 06:12:37;;;;;;;13.90;10.58;;;;;;;20.77;56.51;100478.88;1778650;79;21110;-65
2021/08/21 06:15:04;;;;;;;11.60;8.63;;;;;;;20.84;55.87;100478.44;1770154;79;21079;-65
2021/08/21 06:17:32;;;;;;;12.05;8.88;;;;;;;20.89;55.63;100484.05;1767043;79;21105;-64
2021/08/21 06:20:03;;;;;;;10.65;8.10;;;;;;;20.92;55.41;100483.69;1743532;79;21475;-67
2021/08/21 06:22:31;;;;;;;11.95;9.15;;;;;;;20.95;55.12;100483.31;1766670;79;21671;-66
2021/08/21 06:24:57;;;;;;;13.62;7.40;;;;;;;21.03;55.24;100482.88;1768929;79;21136;-61
2021/08/21 06:27:23;;;;;;;10.88;7.65;;;;;;;21.09;55.57;100482.13;1758578;79;21085;-65
2021/08/21 06:29:50;;;;;;;9.05;5.92;;;;;;;21.18;54.73;100475.62;1771026;79;21004;-65
2021/08/21 06:32:17;;;;;;;17.27;11.30;;;;;;;21.32;54.96;100477.94;1770789;79;21061;-65
2021/08/21 06:34:44;;;;;;;11.12;6.30;;;;;;;21.41;54.20;100470.61;1703245;82;21148;-66
2021/08/21 06:37:10;;;;;;;10.45;6.85;;;;;;;21.49;54.37;100480.70;1761591;79;21084;-63
2021/08/21 06:39:37;;;;;;;10.13;5.90;;;;;;;21.60;53.88;100477.17;1738068;79;21093;-66
2021/08/21 06:42:04;;;;;;;7.87;4.42;;;;;;;21.67;52.98;100478.91;1763216;79;21280;-66
2021/08/21 06:44:32;;;;;;;11.33;6.03;;;;;;;21.73;53.35;100480.48;1758091;79;21133;-66
2021/08/21 06:46:58;;;;;;;9.25;6.28;;;;;;;21.78;52.81;100478.88;1737211;79;21125;-67
2021/08/21 06:49:25;;;;;;;10.43;5.58;;;;;;;21.84;52.60;100477.28;1734660;80;21246;-66
2021/08/21 06:51:51;;;;;;;9.28;6.15;;;;;;;21.89;51.80;100474.85;1770878;79;21102;-63
2021/08/21 06:54:17;;;;;;;10.50;5.90;;;;;;;21.92;51.58;100472.27;1769412;79;21078;-78
2021/08/21 06:56:46;;;;;;;9.08;4.83;;;;;;;21.96;51.42;100477.58;1772809;79;21046;-65
2021/08/21 06:59:12;;;;;;;7.95;4.80;;;;;;;21.98;51.19;100478.20;1733377;79;21121;-63
2021/08/21 07:01:39;;;;;;;8.80;5.72;;;;;;;22.01;51.76;100481.84;1768558;79;21956;-64
2021/08/21 07:04:06;;;;;;;9.68;5.03;;;;;;;22.05;52.44;100479.06;1754642;79;21023;-62
2021/08/21 07:06:33;;;;;;;7.12;4.10;;;;;;;22.12;52.53;100479.11;1723576;80;21091;-63
2021/08/21 07:09:00;;;;;;;7.92;4.75;;;;;;;22.18;51.48;100478.33;1762054;79;21046;-64
2021/08/21 07:11:28;;;;;;;6.72;4.15;;;;;;;22.21;50.41;100479.28;1758174;79;21091;-66
2021/08/21 07:13:54;;;;;;;6.92;4.08;;;;;;;22.24;49.83;100480.20;1760976;79;21677;-65
2021/08/21 07:18:31;;;;;;;11.33;7.90;;;;;;;22.36;49.08;100479.17;1867971;74;22648;-67
2021/08/21 07:20:57;;;;;;;10.88;7.28;;;;;;;22.30;48.64;100478.64;1843000;76;22074;-63
2021/08/21 07:23:24;;;;;;;10.20;6.72;;;;;;;22.35;49.27;100482.89;1814841;75;21765;-64
2021/08/21 07:25:50;;;;;;;7.62;4.37;;;;;;;22.39;49.65;100486.33;1809253;75;21037;-64
2021/08/21 07:28:16;;;;;;;5.83;3.50;;;;;;;22.44;48.67;100479.01;1840829;76;21524;-63
2021/08/21 07:30:43;;;;;;;14.65;10.68;;;;;;;22.50;47.85;100481.43;1840899;76;21069;-66
2021/08/21 07:33:09;;;;;;;9.70;5.55;;;;;;;22.54;48.31;100481.33;1819540;76;21559;-64
2021/08/21 07:35:35;;;;;;;8.55;5.10;;;;;;;22.58;48.26;100482.08;1845419;75;21124;-65
2021/08/21 07:38:02;;;;;;;7.67;4.30;;;;;;;22.62;47.90;100487.34;1744281;79;22382;-68
2021/08/21 07:40:29;;;;;;;6.05;3.58;;;;;;;22.64;47.61;100485.81;1776494;79;21039;-64
2021/08/21 07:42:55;;;;;;;5.72;3.62;;;;;;;22.67;47.88;100484.59;1784640;78;21003;-65
2021/08/21 07:45:22;;;;;;;6.37;3.27;;;;;;;22.72;47.98;100496.37;1760392;78;21837;-62
2021/08/21 07:47:50;;;;;;;6.12;3.52;;;;;;;22.77;46.05;100490.41;1755223;79;21054;-61
2021/08/21 07:50:17;;;;;;;7.90;3.77;;;;;;;22.83;46.14;100497.66;1788931;78;21084;-62
2021/08/21 07:52:48;;;;;;;6.70;3.62;;;;;;;22.90;46.98;100491.80;1778791;78;21512;-63
2021/08/21 07:55:14;;;;;;;5.28;3.00;;;;;;;22.97;45.70;100494.51;1781802;78;21010;-62
2021/08/21 07:57:40;;;;;;;5.08;3.25;;;;;;;23.01;46.16;100494.41;1781524;78;21625;-65
2021/08/21 08:00:08;;;;;;;5.75;3.45;;;;;;;23.06;45.59;100492.46;1782066;78;21125;-71
2021/08/21 08:02:36;;;;;;;7.83;2.58;;;;;;;23.10;45.59;100499.95;1781859;78;21050;-64
2021/08/21 08:05:03;;;;;;;5.62;2.95;;;;;;;23.13;44.98;100498.20;1758046;78;21046;-63
2021/08/21 08:07:29;;;;;;;5.30;2.70;;;;;;;23.18;44.87;100494.89;1758992;79;21085;-64
2021/08/21 08:09:56;;;;;;;6.25;2.80;;;;;;;23.24;44.18;100495.42;1761501;80;22186;-71
2021/08/21 08:12:24;;;;;;;7.92;2.75;;;;;;;23.29;42.99;100497.51;1757465;79;21037;-65
2021/08/21 08:14:50;;;;;;;6.20;3.00;;;;;;;23.36;42.84;100496.47;1754078;80;21030;-65
2021/08/21 08:17:16;;;;;;;5.45;2.67;;;;;;;23.39;42.77;100493.09;1764186;78;21035;-65
2021/08/21 08:19:43;;;;;;;5.37;2.40;;;;;;;23.42;43.91;100500.22;1791157;78;21103;-72
2021/08/21 08:22:09;;;;;;;6.35;2.52;;;;;;;23.49;42.61;100480.08;1763790;78;21066;-70
2021/08/21 08:24:37;;;;;;;5.58;2.58;;;;;;;23.54;42.31;100493.20;1792837;78;21114;-66
2021/08/21 08:27:04;;;;;;;5.60;2.37;;;;;;;23.58;42.00;100493.61;1795067;78;22331;-70
2021/08/21 08:29:32;;;;;;;5.33;2.62;;;;;;;23.61;41.71;100489.70;1791688;78;21066;-67
2021/08/21 08:31:58;;;;;;;5.83;2.55;;;;;;;23.67;40.92;100491.53;1792269;78;21089;-68
2021/08/21 08:34:24;;;;;;;7.58;2.75;;;;;;;23.72;40.33;100500.65;1764054;79;21534;-64
2021/08/21 08:36:51;;;;;;;5.70;2.65;;;;;;;23.76;41.43;100494.87;1796217;78;21059;-67
2021/08/21 08:39:17;;;;;;;6.33;2.30;;;;;;;23.81;41.90;100498.57;1794820;78;21650;-67
2021/08/21 08:41:44;;;;;;;4.65;2.40;;;;;;;23.87;41.14;100488.88;1795332;78;21074;-70
2021/08/21 08:44:15;;;;;;;4.55;1.77;;;;;;;23.90;41.73;100501.37;1767971;79;20992;-65
2021/08/21 08:46:41;;;;;;;4.58;2.20;;;;;;;23.93;40.68;100494.25;1736916;81;21093;-64
2021/08/21 08:49:08;;;;;;;4.40;2.12;;;;;;;24.00;39.26;100490.20;1728857;81;21105;-66
2021/08/21 08:51:34;;;;;;;4.80;2.67;;;;;;;24.04;39.37;100491.46;1760850;79;21626;-66
2021/08/21 08:54:01;;;;;;;5.87;2.50;;;;;;;24.09;40.18;100489.47;1755108;79;21528;-65
2021/08/21 08:56:27;;;;;;;8.50;2.70;;;;;;;24.14;39.71;100487.00;1758663;80;22598;-69
2021/08/21 08:58:54;;;;;;;4.50;1.82;;;;;;;24.16;39.81;100489.45;1758430;79;21092;-65
2021/08/21 09:01:20;;;;;;;5.65;2.40;;;;;;;24.20;39.51;100479.95;1765177;78;22297;-66
2021/08/21 09:03:48;;;;;;;5.35;2.15;;;;;;;24.25;39.86;100486.86;1762194;78;21071;-66
2021/08/21 09:06:14;;;;;;;5.05;2.50;;;;;;;24.29;39.62;100482.20;1792979;78;22039;-66
2021/08/21 09:08:41;;;;;;;5.75;2.60;;;;;;;24.34;40.13;100468.11;1804176;78;21035;-65
2021/08/21 09:11:22;;;;;;;5.05;2.22;;;;;;;24.39;38.74;100478.23;1798687;79;21062;-64
2021/08/21 09:13:50;;;;;;;4.85;2.12;;;;;;;24.40;39.63;100470.48;1759210;80;21196;-64
2021/08/21 09:16:26;;;;;;;7.10;2.62;;;;;;;24.42;38.94;100469.75;1760075;80;21072;-69
2021/08/21 09:19:04;;;;;;;5.25;2.60;;;;;;;24.45;40.00;100476.87;1754164;80;21041;-66
2021/08/21 09:21:32;;;;;;;7.47;3.25;;;;;;;24.51;40.31;100472.52;1756511;79;22271;-65
2021/08/21 09:23:59;;;;;;;6.15;2.83;;;;;;;24.58;40.26;100467.12;1733449;81;21536;-66
2021/08/21 09:26:34;;;;;;;5.28;2.40;;;;;;;24.64;40.51;100471.13;1731304;80;21277;-68
2021/08/21 09:29:00;;;;;;;4.67;2.27;;;;;;;24.74;40.74;100475.24;1732231;81;20989;-65
2021/08/21 09:31:30;;;;;;;4.62;2.60;;;;;;;24.78;38.64;100472.41;1723646;81;21018;-69
2021/08/21 09:34:00;;;;;;;4.87;2.70;;;;;;;24.79;39.04;100474.08;1734372;80;21550;-65
2021/08/21 09:36:40;;;;;;;10.13;3.83;;;;;;;24.81;39.59;100474.18;1716729;82;21105;-66
2021/08/21 09:39:12;;;;;;;5.58;3.10;;;;;;;24.83;39.94;100476.63;1736625;82;22518;-64
2021/08/21 09:41:58;;;;;;;5.53;2.72;;;;;;;24.90;40.14;100469.87;1739480;82;21031;-66
2021/08/21 09:44:34;;;;;;;5.40;2.85;;;;;;;24.93;38.82;100470.29;1753797;80;21508;-68
2021/08/21 09:47:25;;;;;;;5.55;2.90;;;;;;;24.92;38.66;100463.24;1732627;80;21027;-65
2021/08/21 09:49:55;;;;;;;5.20;2.67;;;;;;;24.95;39.37;100465.51;1757935;80;21128;-65
2021/08/21 09:52:21;;;;;;;7.67;2.85;;;;;;;25.00;38.88;100469.72;1740667;82;21534;-63
2021/08/21 09:55:07;;;;;;;5.10;2.70;;;;;;;25.03;39.33;100467.10;1723807;82;21074;-64
2021/08/21 09:57:33;;;;;;;;;;;;;;;25.06;38.69;100477.44;1709901;82;21114;-62
2021/08/21 10:00:00;;;;;;;5.75;2.20;;;;;;;25.13;38.00;100472.02;1733449;81;20452;-64
2021/08/21 10:02:31;;;;;;;5.58;2.85;;;;;;;25.14;38.78;100472.34;1713545;82;21125;-61
2021/08/21 10:04:59;;;;;;;5.97;3.15;;;;;;;25.19;38.56;100476.55;1752004;80;21090;-63
2021/08/21 10:07:32;;;;;;;7.97;3.92;;;;;;;25.19;38.15;100467.13;1756421;79;21062;-62
2021/08/21 10:09:56;;;;;;;6.15;3.33;;;;;;;25.18;38.39;100477.08;1747621;80;21146;-63
2021/08/21 10:12:23;;;;;;;8.75;2.90;;;;;;;25.20;38.63;100468.25;1751512;80;21612;-62
2021/08/21 10:14:50;;;;;;;5.03;2.62;;;;;;;25.22;39.18;100478.81;1753021;79;21075;-62
2021/08/21 10:17:17;;;;;;;5.53;2.92;;;;;;;25.28;38.73;100475.26;1750031;80;21109;-63
2021/08/21 10:19:45;;;;;;;6.28;3.25;;;;;;;25.31;38.07;100474.83;1716671;81;21082;-63
2021/08/21 10:22:11;;;;;;;5.92;2.98;;;;;;;25.33;37.59;100474.61;1749388;80;21097;-63
2021/08/21 10:24:43;;;;;;;5.08;2.70;;;;;;;25.34;38.27;100481.13;1754052;80;21058;-62
2021/08/21 10:27:29;;;;;;;7.05;3.00;;;;;;;25.34;38.46;100475.75;1725321;81;21028;-62
2021/08/21 10:30:13;;;;;;;6.08;3.10;;;;;;;25.33;37.70;100470.05;1719199;81;21419;-61
2021/08/21 10:32:42;;;;;;;9.90;2.75;;;;;;;25.35;38.99;100472.02;1723825;81;21030;-63
2021/08/21 10:35:13;;;;;;;5.33;2.90;;;;;;;25.39;38.14;100474.56;1747492;80;21339;-65
2021/08/21 10:37:46;;;;;;;5.15;2.80;;;;;;;25.45;38.41;100469.34;1753010;80;21054;-62
2021/08/21 10:40:33;;;;;;;5.70;3.20;;;;;;;25.49;38.86;100467.87;1720790;82;20883;-61
2021/08/21 10:43:01;;;;;;;5.72;3.00;;;;;;;25.56;37.29;100460.03;1733601;81;22335;-62
2021/08/21 10:45:46;;;;;;;7.78;5.00;;;;;;;25.61;37.90;100460.72;1704822;82;22255;-63
2021/08/21 10:48:28;;;;;;;7.27;3.30;;;;;;;25.67;37.55;100458.51;1729364;82;21692;-62
2021/08/21 10:50:54;;;;;;;6.45;3.27;;;;;;;25.70;37.69;100459.39;1748217;80;21265;-62
2021/08/21 10:53:28;;;;;;;6.70;2.72;;;;;;;25.75;37.29;100458.20;1730301;81;21074;-61
2021/08/21 10:55:55;;;;;;;8.53;2.92;;;;;;;25.80;36.53;100452.68;1725341;81;21123;-61
2021/08/21 10:58:24;;;;;;;5.12;2.45;;;;;;;25.83;36.95;100457.10;1725846;81;22351;-61
2021/08/21 11:01:02;;;;;;;4.92;2.87;;;;;;;25.84;36.59;100456.06;1725911;82;21058;-61
2021/08/21 11:03:35;;;;;;;8.55;4.40;;;;;;;25.87;37.61;100461.02;1747765;80;21047;-62
2021/08/21 11:06:07;;;;;;;5.03;2.85;;;;;;;25.96;36.72;100458.89;1750250;80;21046;-62
2021/08/21 11:08:41;;;;;;;5.85;3.10;;;;;;;26.04;36.38;100452.36;1747151;80;21769;-63
2021/08/21 11:11:19;;;;;;;4.97;2.70;;;;;;;26.14;36.58;100447.27;1746209;81;21110;-62
2021/08/21 11:14:22;;;;;;;5.28;2.72;;;;;;;26.18;36.18;100453.87;1751290;80;21544;-64
2021/08/21 11:16:57;;;;;;;8.10;3.25;;;;;;;26.20;36.42;100452.31;1741873;82;21533;-63
2021/08/21 11:19:31;;;;;;;4.47;2.15;;;;;;;26.23;36.81;100451.87;1745154;81;21565;-63
2021/08/21 11:22:24;;;;;;;5.25;2.92;;;;;;;26.28;37.48;100456.06;1744562;81;21071;-63
2021/08/21 11:25:01;;;;;;;4.87;2.65;;;;;;;26.35;36.12;100450.59;1714009;81;21489;-62
2021/08/21 11:27:32;;;;;;;5.30;2.83;;;;;;;26.38;35.96;100449.61;1734439;80;21062;-61
2021/08/21 11:30:11;;;;;;;5.30;2.80;;;;;;;26.42;36.21;100452.14;1786694;79;21031;-61
2021/08/21 11:33:00;;;;;;;5.35;3.10;;;;;;;26.46;36.19;100443.91;1725728;81;21086;-62